Date,TemperatureHighF,TemperatureAvgF,TemperatureLowF,DewpointHighF,DewpointAvgF,DewpointLowF,HumidityHigh,HumidityAvg,HumidityLow,PressureMaxIn,PressureMinIn,WindSpeedMaxMPH,WindSpeedAvgMPH,GustSpeedMaxMPH,PrecipitationSumIn
2013-1-1,58,46,40,38,35,30,89,67,39,30.41,30.30,0,0,0,0.00
2013-1-2,66,50,42,33,25,21,68,39,23,30.41,30.27,0,0,0,0.00
2013-1-3,68,49,45,44,23,17,96,37,24,30.41,30.30,0,0,0,34.30
2013-1-4,65,51,45,47,34,22,98,57,25,30.41,30.33,0,0,0,0.00
2013-1-5,62,49,42,52,45,35,98,88,41,30.44,30.27,0,0,0,0.24
2013-1-6,50,45,41,49,44,40,98,97,92,30.39,30.18,0,0,0,0.33
2013-1-7,58,47,40,48,44,40,98,90,64,30.41,30.30,0,0,0,0.00
2013-1-8,66,54,47,50,47,44,94,78,50,30.39,30.30,0,0,0,0.00
2013-1-9,54,50,42,52,44,40,98,83,60,30.30,30.21,0,0,0,0.21
2013-1-10,47,42,36,43,38,31,98,84,55,30.36,30.24,0,0,0,0.00
2013-1-11,53,44,39,44,38,30,98,82,49,30.44,30.30,0,0,0,0.04
2013-1-12,53,42,35,41,34,21,98,77,37,30.41,30.30,0,0,0,0.05
2013-1-13,53,41,32,34,23,14,82,50,27,30.41,30.30,0,0,0,0.00
2013-1-14,54,40,32,22,17,0,49,38,26,30.53,30.36,0,0,0,0.00
2013-1-15,63,45,38,37,22,0,72,41,24,30.65,30.53,0,0,0,0.00
2013-1-16,62,50,39,34,29,24,57,47,32,30.56,30.36,0,0,0,0.00
2013-1-17,76,60,49,37,30,23,47,32,21,30.41,30.30,0,0,0,0.00
2013-1-18,74,60,53,33,26,20,40,28,22,30.39,30.30,0,0,0,0.00
2013-1-19,76,59,54,34,22,18,34,24,18,30.39,30.24,0,0,0,0.30
2013-1-20,81,63,54,32,22,15,34,21,15,30.36,30.24,0,0,0,0.00
2013-1-21,78,63,54,31,22,13,27,21,15,30.36,30.21,0,0,0,0.00
2013-1-22,78,62,56,37,25,15,35,25,15,30.27,30.18,0,0,0,0.00
2013-1-23,67,57,48,47,32,22,95,44,23,30.27,30.15,0,0,0,0.00
2013-1-24,59,52,48,57,51,46,98,94,83,30.39,30.21,0,0,0,35.25
2013-1-25,73,55,53,63,54,52,98,96,66,30.36,30.21,0,0,0,0.00
2013-1-26,57,50,45,55,48,42,98,91,67,30.27,30.18,0,0,0,0.00
2013-1-27,56,47,44,44,42,32,98,84,46,30.36,30.24,0,0,0,0.00
2013-1-28,54,46,39,47,43,38,98,89,62,30.47,30.30,0,0,0,0.00
2013-1-29,56,48,41,50,44,40,98,89,58,30.53,30.41,0,0,0,0.00
2013-1-30,69,54,46,48,42,37,85,66,44,30.53,30.41,0,0,0,0.00
2013-1-31,69,56,47,47,40,32,83,58,35,30.44,30.30,0,0,0,0.00